Time;durP1;ratioP1;P1;durP2;ratioP2;P2;SDS_P1;SDS_P2;PMS_P1;PMS_P2;Temp;Humidity;BMP_temperature;BMP_pressure;BME280_temperature;BME280_humidity;BME280_pressure;Samples;Min_cycle;Max_cycle;Signal;HPM_P1;HPM_P2
2022/03/04 00:01:24;;;;;;;18.48;11.32;;;20.70;57.90;;;;;;4996675;28;20045;-70
2022/03/04 00:03:50;;;;;;;14.65;10.88;;;20.70;58.10;;;;;;4996284;28;20045;-70
2022/03/04 00:06:16;;;;;;;17.60;11.55;;;20.70;58.30;;;;;;4997008;28;20043;-70
2022/03/04 00:08:42;;;;;;;16.00;10.90;;;20.60;58.50;;;;;;4998036;28;20043;-70
2022/03/04 00:11:09;;;;;;;17.92;11.90;;;20.70;58.90;;;;;;5000542;28;20042;-70
2022/03/04 00:13:35;;;;;;;16.92;11.48;;;20.70;59.30;;;;;;5000376;28;20049;-70
2022/03/04 00:16:01;;;;;;;20.50;11.82;;;20.60;59.30;;;;;;5000450;28;20043;-69
2022/03/04 00:18:27;;;;;;;18.17;11.45;;;20.50;59.50;;;;;;5001759;28;20038;-70
2022/03/04 00:20:53;;;;;;;17.98;11.80;;;20.60;59.90;;;;;;4996833;28;20039;-69
2022/03/04 00:23:19;;;;;;;14.98;11.10;;;20.40;60.10;;;;;;5000517;28;20035;-70
2022/03/04 00:25:46;;;;;;;17.33;11.85;;;20.40;60.40;;;;;;5000184;28;20058;-70
2022/03/04 00:28:12;;;;;;;16.42;11.35;;;20.50;60.80;;;;;;5000332;28;20038;-70
2022/03/04 00:30:39;;;;;;;15.73;11.13;;;20.40;60.70;;;;;;4999626;28;20069;-70
2022/03/04 00:33:05;;;;;;;17.67;10.75;;;20.40;60.80;;;;;;5000548;28;20047;-70
2022/03/04 00:35:31;;;;;;;17.70;11.52;;;20.40;60.60;;;;;;5001320;28;20039;-70
2022/03/04 00:37:57;;;;;;;14.80;10.85;;;20.40;60.90;;;;;;5000573;28;20074;-70
2022/03/04 00:40:24;;;;;;;17.42;11.50;;;20.40;60.90;;;;;;4999706;28;20055;-70
2022/03/04 00:42:50;;;;;;;18.13;12.25;;;20.50;61.10;;;;;;5000031;28;20046;-70
2022/03/04 00:45:16;;;;;;;16.65;12.40;;;20.40;60.80;;;;;;4999239;28;20053;-70
2022/03/04 00:47:42;;;;;;;17.63;12.05;;;20.40;60.40;;;;;;5000278;28;20042;-69
2022/03/04 00:50:10;;;;;;;18.30;11.55;;;20.40;60.30;;;;;;5017039;28;20042;-70
2022/03/04 00:52:36;;;;;;;18.60;12.52;;;20.40;60.20;;;;;;5019492;28;20041;-70
2022/03/04 00:55:03;;;;;;;17.75;11.93;;;20.50;60.20;;;;;;5010654;28;20098;-70
2022/03/04 00:57:29;;;;;;;17.75;10.82;;;20.40;59.60;;;;;;5000009;28;20154;-69
2022/03/04 00:59:55;;;;;;;20.75;12.90;;;20.50;59.50;;;;;;4999663;28;20038;-70
2022/03/04 01:02:21;;;;;;;17.35;11.98;;;20.50;59.30;;;;;;4999556;28;20034;-70
2022/03/04 01:04:47;;;;;;;17.05;11.50;;;20.60;59.30;;;;;;5010744;28;20045;-70
2022/03/04 01:07:13;;;;;;;15.38;10.65;;;20.60;59.30;;;;;;4999548;28;20053;-70
2022/03/04 01:09:39;;;;;;;17.00;11.27;;;20.50;59.20;;;;;;4999346;28;20039;-70
2022/03/04 01:12:07;;;;;;;15.80;10.63;;;20.70;59.30;;;;;;4999473;28;20042;-70
2022/03/04 01:14:33;;;;;;;18.27;11.25;;;20.70;59.20;;;;;;4998577;28;20031;-70
2022/03/04 01:16:59;;;;;;;17.48;11.48;;;20.50;58.90;;;;;;4999390;28;20054;-70
2022/03/04 01:19:25;;;;;;;17.75;11.80;;;20.70;59.00;;;;;;5001329;28;20066;-70
2022/03/04 01:21:52;;;;;;;15.75;11.68;;;20.70;58.90;;;;;;4998514;28;20046;-70
2022/03/04 01:24:18;;;;;;;16.23;11.60;;;20.70;58.90;;;;;;5001552;28;20118;-69
2022/03/04 01:26:44;;;;;;;18.67;11.65;;;20.70;58.70;;;;;;5004023;28;20062;-70
2022/03/04 01:29:10;;;;;;;15.07;10.70;;;20.70;58.60;;;;;;4999180;28;20051;-70
2022/03/04 01:31:37;;;;;;;16.58;11.20;;;20.80;58.50;;;;;;4998081;28;20070;-69
2022/03/04 01:34:03;;;;;;;15.48;11.25;;;20.70;58.40;;;;;;5000221;28;20042;-70
2022/03/04 01:36:33;;;;;;;15.45;11.18;;;20.80;58.30;;;;;;5000809;28;20094;-70
2022/03/04 01:39:00;;;;;;;19.85;12.18;;;20.70;58.20;;;;;;5018906;28;20057;-70
2022/03/04 01:41:27;;;;;;;19.35;11.85;;;20.90;58.10;;;;;;5018623;28;20062;-70
2022/03/04 01:43:53;;;;;;;14.43;10.73;;;20.80;57.90;;;;;;5018620;28;20083;-70
2022/03/04 01:46:26;;;;;;;15.13;11.40;;;20.90;58.00;;;;;;5006910;28;20046;-69
2022/03/04 01:48:52;;;;;;;20.90;11.68;;;20.90;57.80;;;;;;5000112;28;20046;-70
2022/03/04 01:51:18;;;;;;;18.27;11.38;;;20.80;58.00;;;;;;4998255;28;20070;-69
2022/03/04 01:53:45;;;;;;;18.20;12.25;;;20.90;58.10;;;;;;4998189;28;20046;-69
2022/03/04 01:56:12;;;;;;;20.77;11.35;;;20.80;57.90;;;;;;4998157;28;20042;-70
2022/03/04 01:58:38;;;;;;;17.90;12.88;;;20.90;57.90;;;;;;4998499;28;20049;-70
2022/03/04 02:01:05;;;;;;;17.35;11.88;;;21.00;57.90;;;;;;4997611;28;20070;-69
2022/03/04 02:03:32;;;;;;;18.70;12.10;;;20.90;57.80;;;;;;4999003;28;20038;-70
2022/03/04 02:05:58;;;;;;;15.23;10.82;;;20.80;57.70;;;;;;4998127;28;20039;-70
2022/03/04 02:08:24;;;;;;;16.67;10.90;;;20.90;57.70;;;;;;4998724;28;20054;-70
2022/03/04 02:10:51;;;;;;;15.82;11.00;;;21.00;57.70;;;;;;4998269;28;20074;-70
2022/03/04 02:13:17;;;;;;;17.25;11.57;;;20.80;57.60;;;;;;4981433;28;20039;-70
2022/03/04 02:15:46;;;;;;;20.20;12.55;;;20.80;57.70;;;;;;4998019;28;20046;-70
2022/03/04 02:18:14;;;;;;;18.85;11.30;;;20.90;57.70;;;;;;5005760;28;20048;-70
2022/03/04 02:20:45;;;;;;;19.17;12.20;;;20.80;57.70;;;;;;5016660;28;20049;-69
2022/03/04 02:23:14;;;;;;;17.05;12.07;;;20.70;57.90;;;;;;4997828;28;20057;-70
2022/03/04 02:25:47;;;;;;;20.05;12.38;;;20.80;57.90;;;;;;4998203;28;20081;-70
2022/03/04 02:28:13;;;;;;;18.58;12.27;;;20.70;58.00;;;;;;4998480;28;20050;-70
2022/03/04 02:30:40;;;;;;;19.60;12.27;;;20.70;58.00;;;;;;4997686;28;20039;-70
2022/03/04 02:33:07;;;;;;;17.42;12.43;;;20.70;57.80;;;;;;5006374;28;20038;-70
2022/03/04 02:35:34;;;;;;;18.25;11.93;;;20.70;58.00;;;;;;5014221;28;20107;-70
2022/03/04 02:38:01;;;;;;;15.35;10.98;;;20.60;57.90;;;;;;4998153;28;20058;-69
2022/03/04 02:40:28;;;;;;;19.90;13.05;;;20.70;57.90;;;;;;4998113;28;20058;-70
2022/03/04 02:42:54;;;;;;;19.98;12.57;;;20.80;57.80;;;;;;4998100;28;20039;-70
2022/03/04 02:45:21;;;;;;;21.58;13.23;;;20.80;58.00;;;;;;4997786;28;20038;-70
2022/03/04 02:47:47;;;;;;;19.02;12.68;;;20.80;57.90;;;;;;5004675;28;20046;-70
2022/03/04 02:50:13;;;;;;;19.77;13.18;;;20.80;57.90;;;;;;5014427;28;20043;-70
2022/03/04 02:52:40;;;;;;;17.38;12.23;;;20.80;57.80;;;;;;4997609;28;20062;-70
2022/03/04 02:55:10;;;;;;;21.58;12.90;;;20.80;57.80;;;;;;4997885;28;20455;-70
2022/03/04 02:57:37;;;;;;;17.60;11.77;;;20.90;57.80;;;;;;4997779;28;20039;-70
2022/03/04 03:00:04;;;;;;;19.30;12.77;;;20.80;57.70;;;;;;4997673;28;20098;-70
2022/03/04 03:02:30;;;;;;;20.17;12.57;;;20.90;57.80;;;;;;5001217;28;20066;-70
2022/03/04 03:04:56;;;;;;;18.17;12.60;;;20.80;57.50;;;;;;5017161;28;20049;-70
2022/03/04 03:07:23;;;;;;;20.08;12.93;;;21.00;57.70;;;;;;4998218;28;20070;-70
2022/03/04 03:09:49;;;;;;;22.25;12.93;;;20.90;57.50;;;;;;4997703;28;20031;-70
2022/03/04 03:12:15;;;;;;;15.70;11.60;;;20.90;57.60;;;;;;4997655;28;20054;-70
2022/03/04 03:14:41;;;;;;;17.55;11.82;;;20.90;57.60;;;;;;4997424;28;20039;-70
2022/03/04 03:17:08;;;;;;;16.13;11.20;;;20.90;57.60;;;;;;4996983;28;20111;-69
2022/03/04 03:19:34;;;;;;;19.80;12.48;;;20.80;57.60;;;;;;5013149;28;20050;-70
2022/03/04 03:22:00;;;;;;;18.50;12.05;;;20.80;57.80;;;;;;4998304;28;20043;-70
2022/03/04 03:24:26;;;;;;;20.65;12.32;;;20.70;58.00;;;;;;4996134;28;20054;-70
2022/03/04 03:26:52;;;;;;;17.92;12.23;;;20.70;57.70;;;;;;4996821;28;20069;-70
2022/03/04 03:29:18;;;;;;;18.63;11.98;;;20.70;57.90;;;;;;5016109;28;20049;-70
2022/03/04 03:31:45;;;;;;;18.00;11.68;;;20.60;58.20;;;;;;5002668;28;20038;-70
2022/03/04 03:34:11;;;;;;;18.30;11.55;;;20.60;58.30;;;;;;5010533;28;20049;-69
2022/03/04 03:36:37;;;;;;;17.83;12.35;;;20.70;58.60;;;;;;5003976;28;20043;-70
2022/03/04 03:39:03;;;;;;;17.08;12.20;;;20.70;58.40;;;;;;4997345;28;20045;-70
2022/03/04 03:41:30;;;;;;;17.55;11.65;;;20.70;58.30;;;;;;4996858;28;20091;-69
2022/03/04 03:43:56;;;;;;;19.55;13.20;;;20.60;58.20;;;;;;4998911;28;20038;-69
2022/03/04 03:46:23;;;;;;;18.80;12.00;;;20.80;58.10;;;;;;5001428;28;20046;-70
2022/03/04 03:48:50;;;;;;;17.33;11.45;;;20.70;58.10;;;;;;5002341;28;20051;-69
2022/03/04 03:51:16;;;;;;;16.85;11.55;;;20.70;58.10;;;;;;5012759;28;20404;-69
2022/03/04 03:53:42;;;;;;;18.25;11.70;;;20.80;57.90;;;;;;5019455;28;20041;-69
2022/03/04 03:56:08;;;;;;;17.27;11.50;;;20.70;57.80;;;;;;5010827;28;20042;-69
2022/03/04 03:58:35;;;;;;;22.17;11.15;;;20.70;58.00;;;;;;5001292;28;20041;-69
2022/03/04 04:01:01;;;;;;;17.95;11.43;;;20.70;57.70;;;;;;5001677;28;20039;-70
2022/03/04 04:03:28;;;;;;;19.20;11.93;;;20.70;57.80;;;;;;5011278;28;20046;-69
2022/03/04 04:05:54;;;;;;;17.38;11.60;;;20.70;58.00;;;;;;5019944;28;20106;-70
2022/03/04 04:08:20;;;;;;;15.45;10.77;;;20.70;57.80;;;;;;5000996;28;20050;-69
2022/03/04 04:10:47;;;;;;;18.00;12.38;;;20.60;57.90;;;;;;5000094;28;20054;-69
2022/03/04 04:13:13;;;;;;;15.07;10.55;;;20.70;58.00;;;;;;5000968;28;20035;-70
2022/03/04 04:15:39;;;;;;;20.90;12.20;;;20.70;58.10;;;;;;5001577;28;20043;-70
2022/03/04 04:18:05;;;;;;;17.80;11.43;;;20.60;58.00;;;;;;5002329;28;20101;-70
2022/03/04 04:20:32;;;;;;;18.13;11.98;;;20.60;58.20;;;;;;5000761;28;20066;-70
2022/03/04 04:22:58;;;;;;;16.23;11.02;;;20.40;58.20;;;;;;5000717;28;20050;-70
2022/03/04 04:25:24;;;;;;;17.58;11.05;;;20.50;58.60;;;;;;5000315;28;20085;-69
2022/03/04 04:27:50;;;;;;;16.52;11.10;;;20.50;58.40;;;;;;5000544;28;20039;-70
2022/03/04 04:30:18;;;;;;;18.10;11.70;;;20.50;58.50;;;;;;5000475;28;20085;-69
2022/03/04 04:32:44;;;;;;;19.45;11.45;;;20.50;58.70;;;;;;5004981;28;20042;-70
2022/03/04 04:35:10;;;;;;;16.35;10.63;;;20.40;58.50;;;;;;5008614;28;20053;-70
2022/03/04 04:37:36;;;;;;;17.73;11.32;;;20.40;58.30;;;;;;5017506;28;20042;-70
2022/03/04 04:40:04;;;;;;;18.13;11.13;;;20.60;58.40;;;;;;5019358;28;20042;-70
2022/03/04 04:42:31;;;;;;;15.38;10.50;;;20.70;58.40;;;;;;5019971;28;20034;-69
2022/03/04 04:44:57;;;;;;;16.75;11.27;;;20.70;58.20;;;;;;5019648;28;20081;-70
2022/03/04 04:47:23;;;;;;;16.55;10.98;;;20.70;57.70;;;;;;5018833;28;20042;-69
2022/03/04 04:49:49;;;;;;;13.95;11.05;;;20.80;57.90;;;;;;5019159;28;20045;-70
2022/03/04 04:52:15;;;;;;;17.00;11.25;;;20.80;58.00;;;;;;5002613;28;20038;-69
2022/03/04 04:54:41;;;;;;;20.08;12.15;;;20.70;57.70;;;;;;5019576;28;20039;-70
2022/03/04 04:57:08;;;;;;;16.70;11.13;;;20.90;57.90;;;;;;5019691;28;20038;-69
2022/03/04 04:59:34;;;;;;;17.35;10.93;;;20.70;58.00;;;;;;5019053;28;20074;-70
2022/03/04 05:02:02;;;;;;;17.35;11.00;;;20.80;58.00;;;;;;5019203;28;20046;-70
2022/03/04 05:04:28;;;;;;;15.52;10.15;;;20.70;58.00;;;;;;5002435;28;20034;-70
2022/03/04 05:06:55;;;;;;;15.98;10.73;;;20.70;57.80;;;;;;4998395;28;20059;-69
2022/03/04 05:09:21;;;;;;;19.55;11.95;;;20.60;57.90;;;;;;4998821;28;20065;-70
2022/03/04 05:11:49;;;;;;;17.88;11.63;;;20.60;57.90;;;;;;4997419;28;20107;-69
2022/03/04 05:14:15;;;;;;;18.00;11.93;;;20.50;58.20;;;;;;4998375;28;20098;-69
2022/03/04 05:16:41;;;;;;;8.27;5.90;;;20.60;57.60;;;;;;4999303;28;20052;-69
2022/03/04 05:19:07;;;;;;;14.60;9.05;;;20.50;48.30;;;;;;5001791;28;20102;-70
2022/03/04 05:21:34;;;;;;;12.13;7.15;;;20.70;46.60;;;;;;5001259;28;20062;-70
2022/03/04 05:24:00;;;;;;;13.38;9.48;;;20.70;45.50;;;;;;5002078;28;20043;-69
2022/03/04 05:26:32;;;;;;;10.30;6.82;;;20.70;45.20;;;;;;4999668;28;20059;-70
2022/03/04 05:29:00;;;;;;;10.77;6.22;;;20.80;44.50;;;;;;5005446;28;20082;-70
2022/03/04 05:31:28;;;;;;;12.15;7.30;;;20.80;44.70;;;;;;5002671;28;20106;-70
2022/03/04 05:33:54;;;;;;;8.88;5.78;;;20.90;44.00;;;;;;4999916;28;20093;-70
2022/03/04 05:36:21;;;;;;;10.35;6.25;;;20.90;42.80;;;;;;4998192;28;20081;-70
2022/03/04 05:38:48;;;;;;;17.48;10.57;;;20.90;42.90;;;;;;4998468;28;20093;-70
2022/03/04 05:41:17;;;;;;;17.58;11.30;;;21.00;57.20;;;;;;4998359;28;20046;-69
2022/03/04 05:43:44;;;;;;;19.52;11.43;;;21.20;57.70;;;;;;4998426;28;20047;-71
2022/03/04 05:46:10;;;;;;;18.70;10.48;;;21.20;57.80;;;;;;5013283;28;20046;-72
2022/03/04 05:48:37;;;;;;;14.25;10.10;;;21.30;58.10;;;;;;4998301;28;20054;-72
2022/03/04 05:51:04;;;;;;;16.35;11.43;;;21.20;58.70;;;;;;4998291;28;20049;-72
2022/03/04 05:53:31;;;;;;;18.02;11.20;;;21.20;59.60;;;;;;4998389;28;20042;-71
2022/03/04 05:55:57;;;;;;;17.08;10.90;;;21.10;60.00;;;;;;4998042;28;20102;-72
2022/03/04 05:58:23;;;;;;;17.00;11.77;;;21.00;60.50;;;;;;5009637;28;20100;-72
2022/03/04 06:00:51;;;;;;;19.42;9.90;;;21.00;61.50;;;;;;5012884;28;20110;-70
2022/03/04 06:03:18;;;;;;;17.35;11.13;;;21.00;62.90;;;;;;5003749;28;20050;-71
2022/03/04 06:05:45;;;;;;;20.45;11.68;;;21.00;62.90;;;;;;4997417;28;20069;-70
2022/03/04 06:08:11;;;;;;;17.08;10.50;;;21.00;63.50;;;;;;4998055;28;20047;-70
2022/03/04 06:10:37;;;;;;;18.30;11.52;;;21.00;66.20;;;;;;4998042;28;20034;-70
2022/03/04 06:13:03;;;;;;;18.33;11.98;;;21.00;67.30;;;;;;4997958;28;20049;-71
2022/03/04 06:15:29;;;;;;;11.52;6.18;;;21.00;69.50;;;;;;5006394;28;20099;-74
2022/03/04 06:17:55;;;;;;;16.02;7.70;;;21.00;68.50;;;;;;5016972;28;20049;-74
2022/03/04 06:20:22;;;;;;;11.93;6.28;;;21.20;65.30;;;;;;5016113;28;20048;-75
2022/03/04 06:22:48;;;;;;;17.25;9.90;;;21.30;60.70;;;;;;5031280;28;20054;-75
2022/03/04 06:25:17;;;;;;;13.50;9.98;;;21.30;57.80;;;;;;5016580;28;20145;-75
2022/03/04 06:28:01;;;;;;;13.48;8.45;;;21.50;55.40;;;;;;5016817;28;20054;-74
2022/03/04 06:30:30;;;;;;;12.05;7.68;;;21.50;53.40;;;;;;5011740;28;20109;-74
2022/03/04 06:33:30;;;;;;;15.13;10.35;;;21.60;51.60;;;;;;4997458;28;20053;-72
2022/03/04 06:35:44;;;;;;;14.77;11.68;;;21.70;49.20;;;;;;4996898;28;20381;-72
2022/03/04 06:38:11;;;;;;;13.15;8.30;;;21.60;43.30;;;;;;4997160;28;20074;-70
2022/03/04 06:40:38;;;;;;;17.92;10.02;;;21.30;48.30;;;;;;4997140;28;20047;-70
2022/03/04 06:43:06;;;;;;;8.98;6.03;;;21.30;47.50;;;;;;4998780;28;20054;-70
2022/03/04 06:45:32;;;;;;;14.77;9.52;;;21.40;46.70;;;;;;5000344;28;20047;-71
2022/03/04 06:47:59;;;;;;;14.10;10.57;;;21.30;47.40;;;;;;4996923;28;20050;-71
2022/03/04 06:50:26;;;;;;;14.23;10.02;;;21.30;46.20;;;;;;4996879;28;20053;-71
2022/03/04 06:52:53;;;;;;;15.40;9.90;;;21.40;47.60;;;;;;4997116;28;20043;-71
2022/03/04 06:55:20;;;;;;;11.60;8.35;;;21.30;43.80;;;;;;4996553;28;20122;-71
2022/03/04 06:57:51;;;;;;;14.27;9.43;;;21.20;49.90;;;;;;4997775;28;20094;-72
2022/03/04 07:00:18;;;;;;;14.23;8.88;;;21.20;49.50;;;;;;5015456;28;20534;-71
2022/03/04 07:02:44;;;;;;;15.55;10.40;;;21.40;50.50;;;;;;5013967;28;20054;-72
2022/03/04 07:05:10;;;;;;;16.80;10.23;;;21.30;50.40;;;;;;5013894;28;20046;-71
2022/03/04 07:07:36;;;;;;;12.52;9.40;;;21.50;50.80;;;;;;5003217;28;20047;-71
2022/03/04 07:10:04;;;;;;;79.93;28.30;;;21.50;52.00;;;;;;5000605;28;20043;-71
2022/03/04 07:12:30;;;;;;;16.15;10.10;;;21.60;49.20;;;;;;4996665;28;20070;-70
2022/03/04 07:14:56;;;;;;;12.32;9.63;;;21.60;41.60;;;;;;4999933;28;20040;-70
2022/03/04 07:17:22;;;;;;;12.57;7.30;;;21.60;40.60;;;;;;5000704;28;20109;-70
2022/03/04 07:19:48;;;;;;;14.55;8.02;;;21.60;40.70;;;;;;5015990;28;20049;-70
2022/03/04 07:22:15;;;;;;;12.90;9.50;;;21.60;39.50;;;;;;5016389;28;20046;-70
2022/03/04 07:24:41;;;;;;;12.77;8.68;;;21.60;38.90;;;;;;5014451;28;20046;-70
2022/03/04 07:27:07;;;;;;;11.85;7.97;;;21.60;38.50;;;;;;5016301;28;20042;-70
2022/03/04 07:29:33;;;;;;;12.35;9.35;;;21.70;48.30;;;;;;5004013;28;20050;-70
2022/03/04 07:32:00;;;;;;;11.80;7.50;;;21.80;51.70;;;;;;4998174;28;20045;-71
2022/03/04 07:34:26;;;;;;;13.23;9.02;;;21.80;52.00;;;;;;4996642;28;20049;-71
2022/03/04 07:36:52;;;;;;;12.68;8.82;;;21.80;53.00;;;;;;4995800;28;20090;-70
2022/03/04 07:39:19;;;;;;;14.82;9.38;;;21.70;51.20;;;;;;4995466;28;20073;-71
2022/03/04 07:41:48;;;;;;;12.65;9.38;;;21.80;53.00;;;;;;4995705;28;20085;-70
2022/03/04 07:44:15;;;;;;;12.60;8.80;;;21.80;53.40;;;;;;5002332;28;20045;-70
2022/03/04 07:46:41;;;;;;;10.98;7.57;;;21.80;53.80;;;;;;4999926;28;20051;-70
2022/03/04 07:49:07;;;;;;;14.68;7.97;;;21.90;53.50;;;;;;5011519;28;20058;-70
2022/03/04 07:51:34;;;;;;;10.07;7.40;;;21.70;54.30;;;;;;5001578;28;20086;-70
2022/03/04 07:54:00;;;;;;;9.82;7.25;;;21.90;54.10;;;;;;4996652;28;20034;-70
2022/03/04 07:56:26;;;;;;;11.93;7.47;;;21.70;54.60;;;;;;4996459;28;20074;-70
2022/03/04 07:58:52;;;;;;;13.30;8.07;;;21.50;55.00;;;;;;4998865;28;20106;-70
2022/03/04 08:01:19;;;;;;;10.50;7.88;;;21.60;55.40;;;;;;4998130;28;20050;-70
2022/03/04 08:03:46;;;;;;;14.07;8.02;;;21.50;55.20;;;;;;4995676;28;20039;-70
2022/03/04 08:06:13;;;;;;;11.52;7.63;;;21.30;55.50;;;;;;4996507;28;20042;-70
2022/03/04 08:08:40;;;;;;;12.40;8.20;;;21.30;55.90;;;;;;4996461;28;20554;-70
2022/03/04 08:11:06;;;;;;;11.52;8.23;;;21.30;55.90;;;;;;4996665;28;20038;-70
2022/03/04 08:13:34;;;;;;;11.45;7.95;;;21.20;55.60;;;;;;5000085;28;20039;-70
2022/03/04 08:16:01;;;;;;;11.07;7.32;;;21.20;55.80;;;;;;4997907;28;20098;-70
2022/03/04 08:18:27;;;;;;;11.70;7.22;;;21.10;55.40;;;;;;4996549;28;20488;-70
2022/03/04 08:20:54;;;;;;;13.77;7.97;;;21.20;56.00;;;;;;4996464;28;20051;-70
2022/03/04 08:23:20;;;;;;;12.30;7.10;;;21.10;55.90;;;;;;4979438;28;20046;-70
2022/03/04 08:25:46;;;;;;;10.95;6.45;;;21.10;55.90;;;;;;4996153;28;20062;-70
2022/03/04 08:28:12;;;;;;;10.38;6.55;;;21.20;55.80;;;;;;5014952;28;20061;-70
2022/03/04 08:30:39;;;;;;;10.20;7.10;;;21.40;55.70;;;;;;5015244;28;20046;-70
2022/03/04 08:33:05;;;;;;;9.27;7.30;;;21.30;55.30;;;;;;5001386;28;20038;-70
2022/03/04 08:35:34;;;;;;;12.07;7.30;;;21.50;55.60;;;;;;5007624;28;20185;-70
2022/03/04 08:38:02;;;;;;;9.63;6.53;;;21.40;55.30;;;;;;5007004;28;20064;-70
2022/03/04 08:40:29;;;;;;;10.95;6.50;;;21.50;55.20;;;;;;5015589;28;20102;-70
2022/03/04 08:42:57;;;;;;;9.82;6.40;;;21.30;54.90;;;;;;5018927;28;20043;-70
2022/03/04 08:45:23;;;;;;;17.48;7.03;;;21.50;55.40;;;;;;5003068;28;20121;-70
2022/03/04 08:47:49;;;;;;;9.23;6.63;;;21.30;55.10;;;;;;4999542;28;20114;-70
2022/03/04 08:50:16;;;;;;;7.95;5.85;;;21.30;55.00;;;;;;4999461;28;20034;-70
2022/03/04 08:52:43;;;;;;;7.05;5.70;;;21.30;55.40;;;;;;4999351;28;20043;-70
2022/03/04 08:55:14;;;;;;;8.93;5.75;;;21.30;55.40;;;;;;4999711;28;20081;-70
2022/03/04 08:57:45;;;;;;;9.35;7.00;;;21.40;55.10;;;;;;4998820;28;20051;-70
2022/03/04 09:00:14;;;;;;;10.75;6.32;;;21.20;53.10;;;;;;5004774;28;20058;-70
2022/03/04 09:02:41;;;;;;;10.85;7.25;;;21.10;55.60;;;;;;5003310;28;20047;-71
2022/03/04 09:05:07;;;;;;;8.57;6.45;;;21.00;54.40;;;;;;5005637;28;20057;-71
2022/03/04 09:07:34;;;;;;;9.95;6.50;;;21.00;56.10;;;;;;5010087;28;20051;-70
2022/03/04 09:10:04;;;;;;;8.05;5.25;;;20.90;56.40;;;;;;5010004;28;20101;-70
2022/03/04 09:12:31;;;;;;;10.40;6.72;;;20.80;57.00;;;;;;5018557;28;20038;-69
2022/03/04 09:14:57;;;;;;;10.38;5.97;;;20.80;57.00;;;;;;5014299;28;20062;-70
2022/03/04 09:17:24;;;;;;;8.82;5.38;;;20.70;56.80;;;;;;5018504;28;20094;-69
2022/03/04 09:19:51;;;;;;;10.77;6.57;;;20.80;56.80;;;;;;5018583;28;20053;-71
2022/03/04 09:22:17;;;;;;;8.07;5.40;;;20.70;57.00;;;;;;5018574;28;20049;-71
2022/03/04 09:24:43;;;;;;;8.80;6.35;;;20.80;56.30;;;;;;5003116;28;20071;-72
2022/03/04 09:27:10;;;;;;;9.57;6.97;;;20.70;58.20;;;;;;4998846;28;20047;-71
2022/03/04 09:29:36;;;;;;;9.43;6.13;;;20.60;58.20;;;;;;5001348;28;20050;-71
2022/03/04 09:32:03;;;;;;;9.90;6.90;;;20.60;57.90;;;;;;5001890;28;20061;-70
2022/03/04 09:34:29;;;;;;;13.98;6.93;;;20.60;57.20;;;;;;5014954;28;20058;-71
2022/03/04 09:36:55;;;;;;;11.15;6.20;;;20.50;57.60;;;;;;4999828;28;20066;-71
2022/03/04 09:39:22;;;;;;;14.15;7.15;;;20.60;56.40;;;;;;5004763;28;20050;-70
2022/03/04 09:41:48;;;;;;;11.15;7.68;;;20.50;56.90;;;;;;5017121;28;20053;-70
2022/03/04 09:44:16;;;;;;;10.60;6.85;;;20.60;51.90;;;;;;5013743;28;20049;-71
2022/03/04 09:46:44;;;;;;;9.13;6.35;;;20.60;52.90;;;;;;5017955;28;20092;-70
2022/03/04 09:49:12;;;;;;;9.15;6.50;;;20.40;55.30;;;;;;5017987;28;20094;-71
2022/03/04 09:51:38;;;;;;;8.75;6.40;;;20.50;54.20;;;;;;5018038;28;20049;-70
2022/03/04 09:54:04;;;;;;;11.32;6.85;;;20.40;51.80;;;;;;5017830;28;20074;-70
2022/03/04 09:56:30;;;;;;;11.95;6.35;;;20.30;53.30;;;;;;5017875;28;20042;-71
2022/03/04 09:58:59;;;;;;;10.75;6.80;;;20.40;53.10;;;;;;5008823;28;20038;-70
2022/03/04 10:01:26;;;;;;;10.90;6.60;;;20.20;52.40;;;;;;4998121;28;20026;-71
2022/03/04 10:03:54;;;;;;;10.93;6.82;;;20.30;55.40;;;;;;4998307;28;20050;-71
2022/03/04 10:06:22;;;;;;;7.72;6.68;;;20.30;54.90;;;;;;4998008;28;20047;-71
2022/03/04 10:08:51;;;;;;;10.18;7.03;;;20.30;50.90;;;;;;4998095;28;20119;-71
2022/03/04 10:11:32;;;;;;;12.05;7.22;;;20.30;52.20;;;;;;4999457;28;20049;-70
2022/03/04 10:14:07;;;;;;;9.70;5.85;;;20.30;54.20;;;;;;5012941;28;20066;-68
2022/03/04 10:16:41;;;;;;;10.40;8.05;;;20.10;50.50;;;;;;5016040;28;20042;-70
2022/03/04 10:19:13;;;;;;;12.02;5.22;;;20.40;42.20;;;;;;5012421;28;20055;-69
2022/03/04 10:21:59;;;;;;;12.60;7.10;;;20.80;42.60;;;;;;4997578;28;20057;-70
2022/03/04 10:24:38;;;;;;;5.75;5.15;;;21.00;41.50;;;;;;4997841;28;20051;-69
2022/03/04 10:27:07;;;;;;;5.20;3.75;;;21.10;38.30;;;;;;5000426;28;20050;-70
2022/03/04 10:29:36;;;;;;;5.85;3.40;;;21.30;41.00;;;;;;5006547;28;20038;-69
2022/03/04 10:32:26;;;;;;;6.88;5.35;;;21.40;37.30;;;;;;5006294;28;20062;-69
2022/03/04 10:34:56;;;;;;;14.65;8.10;;;21.60;36.90;;;;;;4997447;28;20051;-70
2022/03/04 10:37:56;;;;;;;7.40;4.65;;;21.70;36.50;;;;;;4997616;28;20043;-69
2022/03/04 10:40:42;;;;;;;6.57;4.60;;;21.80;37.30;;;;;;5009542;28;20098;-69
2022/03/04 10:43:11;;;;;;;10.32;5.15;;;21.90;37.70;;;;;;5003236;28;20045;-72
2022/03/04 10:45:45;;;;;;;5.47;4.78;;;22.10;41.60;;;;;;5004421;28;20047;-72
2022/03/04 10:48:15;;;;;;;7.07;4.18;;;22.00;42.10;;;;;;4997304;28;20053;-72
2022/03/04 10:50:45;;;;;;;6.75;4.85;;;22.20;43.60;;;;;;4997352;28;20050;-72
2022/03/04 10:53:31;;;;;;;9.55;5.35;;;22.30;43.40;;;;;;4980208;28;20050;-73
2022/03/04 10:56:04;;;;;;;12.63;6.75;;;22.50;39.30;;;;;;4997095;28;20034;-70
2022/03/04 10:58:31;;;;;;;10.65;8.23;;;22.50;34.60;;;;;;4997415;28;20046;-70
2022/03/04 11:01:09;;;;;;;11.60;5.53;;;22.60;35.10;;;;;;4997503;28;20046;-71
2022/03/04 11:03:37;;;;;;;8.95;4.68;;;22.50;33.80;;;;;;4996793;28;20069;-70
2022/03/04 11:06:14;;;;;;;10.75;5.93;;;22.70;39.90;;;;;;5001077;28;20090;-70
2022/03/04 11:08:42;;;;;;;7.72;5.10;;;22.90;40.00;;;;;;4997014;28;20070;-69
2022/03/04 11:11:09;;;;;;;10.63;6.13;;;23.20;45.40;;;;;;4997571;28;20070;-69
2022/03/04 11:13:37;;;;;;;5.40;4.25;;;23.50;44.20;;;;;;5014929;28;20492;-69
2022/03/04 11:16:06;;;;;;;5.55;3.72;;;23.40;44.00;;;;;;5008265;28;20098;-69
2022/03/04 11:18:34;;;;;;;7.03;5.25;;;23.50;42.00;;;;;;4996435;28;20068;-70
2022/03/04 11:21:00;;;;;;;6.47;4.60;;;23.50;40.10;;;;;;5005535;28;20046;-71
2022/03/04 11:23:29;;;;;;;7.32;4.75;;;23.50;40.00;;;;;;4994939;28;20039;-71
2022/03/04 11:25:58;;;;;;;4.35;3.17;;;23.40;36.60;;;;;;5005271;28;20557;-71
2022/03/04 11:28:45;;;;;;;6.97;4.90;;;23.30;37.70;;;;;;5003704;28;20089;-72
2022/03/04 11:31:13;;;;;;;8.70;5.82;;;23.30;43.30;;;;;;5006574;28;20074;-71
2022/03/04 11:33:44;;;;;;;11.65;5.80;;;23.30;48.40;;;;;;5016371;28;20888;-71
2022/03/04 11:36:25;;;;;;;7.88;5.13;;;23.30;48.40;;;;;;5016412;28;20105;-70
2022/03/04 11:38:53;;;;;;;6.47;5.05;;;23.20;39.30;;;;;;5016099;28;20052;-70
2022/03/04 11:41:24;;;;;;;17.27;6.85;;;23.30;35.90;;;;;;5016382;28;20061;-70
2022/03/04 11:44:12;;;;;;;22.15;7.38;;;23.30;38.30;;;;;;4997974;28;20102;-69
2022/03/04 11:46:51;;;;;;;62.28;11.50;;;23.20;40.20;;;;;;5009921;28;20102;-69
2022/03/04 11:49:48;;;;;;;123.35;27.42;;;23.30;38.40;;;;;;5016116;28;20074;-69
2022/03/04 11:52:41;;;;;;;25.92;10.88;;;23.30;39.20;;;;;;5001203;28;20038;-70
2022/03/04 11:55:15;;;;;;;49.60;14.43;;;23.40;36.10;;;;;;4992268;28;20043;-70
2022/03/04 11:57:44;;;;;;;102.85;31.65;;;23.30;36.90;;;;;;4997065;28;20141;-70
2022/03/04 12:00:10;;;;;;;24.75;13.07;;;23.30;36.70;;;;;;5013850;28;20042;-69
2022/03/04 12:02:46;;;;;;;39.33;12.63;;;23.30;35.70;;;;;;5016095;28;20077;-70
2022/03/04 12:05:15;;;;;;;45.92;11.55;;;23.20;34.50;;;;;;4999920;28;20055;-69
2022/03/04 12:07:50;;;;;;;50.10;12.90;;;23.20;35.10;;;;;;5000071;28;20050;-68
2022/03/04 12:10:21;;;;;;;14.20;8.55;;;23.10;37.30;;;;;;5006872;28;20042;-70
2022/03/04 12:13:00;;;;;;;14.20;8.68;;;23.20;54.40;;;;;;5015635;28;20035;-70
2022/03/04 12:15:26;;;;;;;11.43;7.20;;;23.30;51.70;;;;;;5000395;28;20047;-70
2022/03/04 12:18:02;;;;;;;11.25;6.80;;;23.30;51.60;;;;;;5000119;28;20038;-70
2022/03/04 12:20:56;;;;;;;11.88;8.40;;;23.30;52.30;;;;;;5000023;28;20115;-70
2022/03/04 12:23:36;;;;;;;10.77;6.53;;;23.30;52.00;;;;;;5000208;28;20055;-70
2022/03/04 12:26:02;;;;;;;7.22;5.28;;;23.20;51.90;;;;;;4999771;28;20070;-70
2022/03/04 12:28:40;;;;;;;14.68;6.40;;;23.20;52.20;;;;;;4999720;28;20055;-69
2022/03/04 12:31:13;;;;;;;12.85;7.53;;;23.20;40.70;;;;;;4994194;28;20038;-70
2022/03/04 12:33:44;;;;;;;16.87;6.20;;;23.20;38.70;;;;;;4998724;28;20758;-70
2022/03/04 12:36:13;;;;;;;6.40;2.72;;;23.20;37.70;;;;;;5000570;28;20066;-72
2022/03/04 12:38:58;;;;;;;6.20;3.63;;;23.20;47.40;;;;;;4997329;28;20054;-72